createdAt,value
2018-07-16T00:02:04.181Z,99.90
2018-07-16T00:04:35.071Z,99.90
2018-07-16T00:07:05.989Z,99.90
2018-07-16T00:09:37.436Z,99.90
2018-07-16T00:12:08.253Z,99.90
2018-07-16T00:14:39.072Z,99.90
2018-07-16T00:17:09.998Z,99.90
2018-07-16T00:19:40.962Z,99.90
2018-07-16T00:22:11.827Z,99.90
2018-07-16T00:24:43.016Z,99.90
2018-07-16T00:27:14.180Z,99.90
2018-07-16T00:29:45.227Z,99.90
2018-07-16T00:32:15.646Z,99.90
2018-07-16T00:34:46.649Z,99.90
2018-07-16T00:37:17.724Z,99.90
2018-07-16T00:39:48.762Z,99.90
2018-07-16T00:42:19.519Z,99.90
2018-07-16T00:44:50.142Z,99.90
2018-07-16T00:47:21.080Z,99.90
2018-07-16T00:52:26.375Z,99.90
2018-07-16T00:54:57.264Z,99.90
2018-07-16T00:57:28.352Z,99.90
2018-07-16T00:59:59.285Z,99.90
2018-07-16T01:02:30.140Z,99.90
2018-07-16T01:05:01.235Z,99.90
2018-07-16T01:07:32.181Z,99.90
2018-07-16T01:10:03.073Z,99.90
2018-07-16T01:12:33.714Z,99.90
2018-07-16T01:15:04.436Z,99.90
2018-07-16T01:17:35.304Z,99.90
2018-07-16T01:20:06.235Z,99.90
2018-07-16T01:22:37.232Z,99.90
2018-07-16T01:25:08.275Z,99.90
2018-07-16T01:27:39.228Z,99.90
2018-07-16T01:30:10.086Z,99.90
2018-07-16T01:32:41.117Z,99.90
2018-07-16T01:35:12.179Z,99.90
2018-07-16T01:40:13.507Z,99.90
2018-07-16T01:42:44.532Z,99.90
2018-07-16T01:45:15.382Z,99.90
2018-07-16T01:47:46.365Z,99.90
2018-07-16T01:50:17.255Z,99.90
2018-07-16T01:52:48.039Z,99.90
2018-07-16T01:55:18.966Z,99.90
2018-07-16T01:57:50.030Z,99.90
2018-07-16T02:00:21.043Z,99.90
2018-07-16T02:02:52.014Z,99.90
2018-07-16T02:05:23.391Z,99.90
2018-07-16T02:07:54.502Z,99.90
2018-07-16T02:10:25.627Z,99.90
2018-07-16T02:12:56.676Z,99.90
2018-07-16T02:15:27.643Z,99.90
2018-07-16T02:17:58.362Z,99.90
2018-07-16T02:20:29.612Z,99.90
2018-07-16T02:23:00.375Z,99.90
2018-07-16T02:25:31.196Z,99.90
2018-07-16T02:28:01.955Z,99.90
2018-07-16T02:30:32.897Z,99.90
2018-07-16T02:33:03.812Z,99.90
2018-07-16T02:35:34.453Z,99.90
2018-07-16T02:38:05.312Z,99.90
2018-07-16T02:40:36.307Z,99.90
2018-07-16T02:43:07.441Z,99.90
2018-07-16T02:45:38.548Z,99.90
2018-07-16T02:48:10.303Z,99.90
2018-07-16T02:50:41.178Z,99.90
2018-07-16T02:53:12.149Z,99.90
2018-07-16T02:55:43.300Z,99.90
2018-07-16T02:58:14.284Z,99.90
2018-07-16T03:00:45.369Z,99.90
2018-07-16T03:03:16.304Z,99.90
2018-07-16T03:05:47.120Z,99.90
2018-07-16T03:08:18.058Z,99.90
2018-07-16T03:10:49.026Z,99.90
2018-07-16T03:13:19.883Z,99.90
2018-07-16T03:15:50.949Z,99.90
2018-07-16T03:18:21.950Z,99.90
2018-07-16T03:20:52.787Z,99.90
2018-07-16T03:23:23.716Z,99.90
2018-07-16T03:25:54.681Z,99.90
2018-07-16T03:28:25.796Z,99.90
2018-07-16T03:30:56.854Z,99.90
2018-07-16T03:33:27.915Z,99.90
2018-07-16T03:35:58.782Z,99.90
2018-07-16T03:38:29.662Z,99.90
2018-07-16T03:41:00.576Z,99.90
2018-07-16T03:43:31.606Z,99.90
2018-07-16T03:46:02.550Z,99.90
2018-07-16T03:48:33.703Z,99.90
2018-07-16T03:51:04.759Z,99.90
2018-07-16T03:53:35.867Z,99.90
2018-07-16T03:56:06.863Z,99.90
2018-07-16T03:58:37.824Z,99.90
2018-07-16T04:01:08.953Z,99.90
2018-07-16T04:03:40.076Z,99.90
2018-07-16T04:06:11.001Z,99.90
2018-07-16T04:08:41.921Z,99.90
2018-07-16T04:11:12.863Z,99.90
2018-07-16T04:13:43.766Z,99.90
2018-07-16T04:16:14.788Z,99.90
2018-07-16T04:18:45.730Z,99.90
2018-07-16T04:21:16.313Z,99.90
2018-07-16T04:23:47.181Z,99.90
2018-07-16T04:26:18.058Z,99.90
2018-07-16T04:28:49.163Z,99.90
2018-07-16T04:31:20.156Z,99.90
2018-07-16T04:36:21.367Z,99.90
2018-07-16T04:38:52.367Z,99.90
2018-07-16T04:41:35.292Z,99.90
2018-07-16T04:44:12.812Z,99.90
2018-07-16T04:50:07.599Z,99.90
2018-07-16T04:52:38.483Z,99.90
2018-07-16T04:55:14.335Z,99.90
2018-07-16T04:57:47.395Z,99.90
2018-07-16T05:00:18.158Z,99.90
2018-07-16T05:02:49.199Z,99.90
2018-07-16T05:05:20.221Z,99.90
2018-07-16T05:07:51.197Z,99.90
2018-07-16T05:10:25.987Z,99.90
2018-07-16T05:12:56.745Z,99.90
2018-07-16T05:15:27.570Z,99.90
2018-07-16T05:17:58.692Z,99.90
2018-07-16T05:20:29.599Z,99.90
2018-07-16T05:23:00.475Z,99.90
2018-07-16T05:25:31.995Z,99.90
2018-07-16T05:28:03.055Z,99.90
2018-07-16T05:30:33.854Z,99.90
2018-07-16T05:33:14.783Z,99.90
2018-07-16T05:35:46.002Z,99.90
2018-07-16T05:38:17.000Z,99.90
2018-07-16T05:40:47.829Z,99.90
2018-07-16T05:43:18.923Z,99.90
2018-07-16T05:45:49.753Z,99.90
2018-07-16T05:48:20.935Z,99.90
2018-07-16T05:50:51.659Z,99.90
2018-07-16T05:53:22.832Z,99.90
2018-07-16T05:55:53.870Z,99.90
2018-07-16T05:58:24.891Z,99.90
2018-07-16T06:00:56.007Z,99.90
2018-07-16T06:03:27.143Z,99.90
2018-07-16T06:05:58.040Z,99.90
2018-07-16T06:08:28.675Z,99.90
2018-07-16T06:10:59.677Z,99.90
2018-07-16T06:13:30.387Z,99.90
2018-07-16T06:16:01.231Z,99.90
2018-07-16T06:18:31.850Z,99.90
2018-07-16T06:21:02.571Z,99.90
2018-07-16T06:23:33.634Z,99.90
2018-07-16T06:26:04.825Z,99.90
2018-07-16T06:28:35.635Z,99.90
2018-07-16T06:31:06.371Z,99.90
2018-07-16T06:33:37.274Z,99.90
2018-07-16T06:36:08.314Z,99.90
2018-07-16T06:38:39.471Z,99.90
2018-07-16T06:41:10.977Z,99.90
2018-07-16T06:43:41.060Z,99.90
2018-07-16T06:46:12.022Z,99.90
2018-07-16T06:48:46.563Z,99.90
2018-07-16T06:51:17.243Z,99.90
2018-07-16T06:53:47.917Z,99.90
2018-07-16T06:56:18.667Z,99.90
2018-07-16T06:58:49.288Z,99.90
2018-07-16T07:01:20.033Z,99.90
2018-07-16T07:03:50.704Z,99.90
2018-07-16T07:06:21.406Z,99.90
2018-07-16T07:08:52.156Z,99.90
2018-07-16T07:11:22.793Z,99.90
2018-07-16T07:13:53.482Z,99.90
2018-07-16T07:16:24.676Z,99.90
2018-07-16T07:18:55.582Z,99.90
2018-07-16T07:21:26.607Z,99.90
2018-07-16T07:23:57.865Z,99.90
2018-07-16T07:26:29.040Z,99.90
2018-07-16T07:29:00.193Z,99.90
2018-07-16T07:31:30.998Z,99.90
2018-07-16T07:36:31.980Z,99.90
2018-07-16T07:39:02.986Z,99.90
2018-07-16T07:41:34.178Z,99.90
2018-07-16T07:44:05.103Z,99.90
2018-07-16T07:46:36.155Z,99.90
2018-07-16T07:49:06.978Z,99.90
2018-07-16T07:51:37.771Z,99.90
2018-07-16T07:54:08.741Z,99.90
2018-07-16T07:56:39.595Z,99.90
2018-07-16T07:59:10.362Z,99.90
2018-07-16T08:01:41.362Z,99.90
2018-07-16T08:04:12.430Z,99.90
2018-07-16T08:06:47.262Z,99.90
2018-07-16T08:09:18.178Z,99.90
2018-07-16T08:11:49.035Z,99.90
2018-07-16T08:14:20.109Z,99.90
2018-07-16T08:16:50.925Z,99.90
2018-07-16T08:19:21.677Z,99.90
2018-07-16T08:21:52.594Z,99.90
2018-07-16T08:24:23.597Z,99.90
2018-07-16T08:26:54.597Z,99.90
2018-07-16T08:29:25.730Z,99.90
2018-07-16T08:31:56.592Z,99.90
2018-07-16T08:34:27.351Z,99.90
2018-07-16T08:36:57.989Z,99.90
2018-07-16T08:39:28.879Z,99.90
2018-07-16T08:41:59.611Z,99.90
2018-07-16T08:44:30.335Z,99.90
2018-07-16T08:47:01.047Z,99.30
2018-07-16T08:49:31.755Z,96.30
2018-07-16T08:52:02.522Z,93.70
2018-07-16T08:54:33.273Z,91.40
2018-07-16T08:57:04.080Z,87.90
2018-07-16T08:59:34.762Z,82.90
2018-07-16T09:02:05.561Z,79.90
2018-07-16T09:04:36.306Z,77.50
2018-07-16T09:07:07.202Z,75.30
2018-07-16T09:09:37.865Z,74.30
2018-07-16T09:12:08.577Z,73.00
2018-07-16T09:14:39.332Z,72.00
2018-07-16T09:17:10.153Z,71.10
2018-07-16T09:19:40.876Z,70.30
2018-07-16T09:22:11.642Z,69.10
2018-07-16T09:24:42.555Z,68.10
2018-07-16T09:27:13.291Z,66.50
2018-07-16T09:29:44.003Z,64.40
2018-07-16T09:32:14.671Z,62.80
2018-07-16T09:34:45.379Z,61.90
2018-07-16T09:37:16.331Z,60.60
2018-07-16T09:39:47.089Z,60.90
2018-07-16T09:42:17.712Z,61.90
2018-07-16T09:44:48.369Z,61.00
2018-07-16T09:47:19.153Z,59.50
2018-07-16T09:49:49.848Z,58.10
2018-07-16T09:52:20.673Z,58.10
2018-07-16T09:54:51.304Z,57.20
2018-07-16T09:57:22.102Z,56.30
2018-07-16T09:59:52.762Z,55.80
2018-07-16T10:02:23.474Z,55.00
2018-07-16T10:04:54.297Z,54.40
2018-07-16T10:07:24.901Z,54.90
2018-07-16T10:09:55.908Z,55.40
2018-07-16T10:12:26.610Z,56.20
2018-07-16T10:14:57.290Z,57.30
2018-07-16T10:17:27.983Z,58.60
2018-07-16T10:19:58.742Z,59.50
2018-07-16T10:22:29.539Z,61.00
2018-07-16T10:25:00.281Z,62.50
2018-07-16T10:27:32.993Z,63.30
2018-07-16T10:30:03.771Z,64.70
2018-07-16T10:32:34.591Z,64.90
2018-07-16T10:35:05.411Z,65.30
2018-07-16T10:37:36.474Z,65.40
2018-07-16T10:40:07.467Z,65.80
2018-07-16T10:42:38.205Z,65.20
2018-07-16T10:45:09.105Z,65.00
2018-07-16T10:47:39.879Z,65.40
2018-07-16T10:50:10.927Z,66.70
2018-07-16T10:52:41.968Z,67.80
2018-07-16T10:55:12.841Z,69.20
2018-07-16T10:57:43.623Z,70.30
2018-07-16T11:00:14.373Z,71.50
2018-07-16T11:02:44.996Z,72.70
2018-07-16T11:05:15.829Z,74.40
2018-07-16T11:07:46.485Z,75.70
2018-07-16T11:10:17.132Z,77.90
2018-07-16T11:12:47.843Z,79.50
2018-07-16T11:15:18.688Z,82.10
2018-07-16T11:17:49.367Z,82.60
2018-07-16T11:20:20.360Z,83.40
2018-07-16T11:22:51.064Z,84.90
2018-07-16T11:25:21.570Z,84.20
2018-07-16T11:27:52.608Z,83.80
2018-07-16T11:30:22.959Z,83.70
2018-07-16T11:32:53.821Z,81.00
2018-07-16T11:35:24.941Z,79.50
2018-07-16T11:37:55.632Z,79.50
2018-07-16T11:40:26.387Z,79.10
2018-07-16T11:42:57.114Z,79.30
2018-07-16T11:45:27.848Z,76.00
2018-07-16T11:47:58.373Z,73.70
2018-07-16T11:50:29.344Z,69.00
2018-07-16T11:53:00.084Z,70.50
2018-07-16T11:55:30.779Z,67.30
2018-07-16T11:58:01.835Z,60.00
2018-07-16T12:00:32.577Z,55.50
2018-07-16T12:03:03.418Z,57.60
2018-07-16T12:05:34.198Z,59.30
2018-07-16T12:08:04.905Z,58.30
2018-07-16T12:10:36.017Z,56.80
2018-07-16T12:13:06.740Z,57.10
2018-07-16T12:15:37.690Z,59.20
2018-07-16T12:18:08.444Z,58.80
2018-07-16T12:20:39.118Z,57.50
2018-07-16T12:23:09.808Z,56.00
2018-07-16T12:25:40.511Z,55.90
2018-07-16T12:28:11.161Z,54.70
2018-07-16T12:30:41.917Z,54.70
2018-07-16T12:33:12.585Z,54.40
2018-07-16T12:35:43.266Z,53.90
2018-07-16T12:38:13.807Z,53.30
2018-07-16T12:40:44.599Z,52.70
2018-07-16T12:43:15.734Z,51.70
2018-07-16T12:45:47.101Z,50.70
2018-07-16T12:48:17.980Z,51.60
2018-07-16T12:50:48.705Z,51.20
2018-07-16T12:53:19.566Z,50.70
2018-07-16T12:55:50.348Z,49.20
2018-07-16T12:58:21.146Z,48.50
2018-07-16T13:00:51.933Z,49.10
2018-07-16T13:03:22.759Z,48.90
2018-07-16T13:05:53.427Z,49.40
2018-07-16T13:08:24.444Z,49.30
2018-07-16T13:10:55.504Z,49.70
2018-07-16T13:13:26.325Z,50.50
2018-07-16T13:15:57.109Z,48.30
2018-07-16T13:18:27.792Z,48.10
2018-07-16T13:20:58.506Z,48.00
2018-07-16T13:23:29.305Z,48.50
2018-07-16T13:26:00.036Z,47.10
2018-07-16T13:28:30.824Z,46.60
2018-07-16T13:31:01.684Z,46.70
2018-07-16T13:33:32.457Z,45.70
2018-07-16T13:36:03.024Z,45.40
2018-07-16T13:38:33.853Z,45.20
2018-07-16T13:41:04.484Z,45.30
2018-07-16T13:43:35.238Z,46.30
2018-07-16T13:46:05.988Z,46.50
2018-07-16T13:48:36.780Z,46.30
2018-07-16T13:51:07.749Z,46.80
2018-07-16T13:53:38.512Z,47.40
2018-07-16T13:56:09.294Z,48.20
2018-07-16T13:58:39.876Z,48.60
2018-07-16T14:01:10.665Z,48.20
2018-07-16T14:03:41.292Z,47.30
2018-07-16T14:06:11.915Z,46.20
2018-07-16T14:08:42.650Z,46.70
2018-07-16T14:11:13.402Z,46.60
2018-07-16T14:13:44.083Z,45.30
2018-07-16T14:16:14.819Z,46.10
2018-07-16T14:18:45.423Z,44.90
2018-07-16T14:21:16.120Z,45.60
2018-07-16T14:23:46.759Z,45.00
2018-07-16T14:26:17.472Z,44.80
2018-07-16T14:28:48.167Z,44.70
2018-07-16T14:31:19.052Z,45.00
2018-07-16T14:33:49.633Z,45.10
2018-07-16T14:36:20.235Z,45.30
2018-07-16T14:38:50.833Z,46.00
2018-07-16T14:41:21.741Z,45.80
2018-07-16T14:43:52.726Z,45.20
2018-07-16T14:46:28.223Z,45.40
2018-07-16T14:48:58.949Z,45.40
2018-07-16T14:51:29.853Z,46.10
2018-07-16T14:54:00.892Z,46.00
2018-07-16T14:56:31.788Z,46.40
2018-07-16T14:59:02.719Z,47.30
2018-07-16T15:01:34.068Z,47.90
2018-07-16T15:04:04.955Z,48.70
2018-07-16T15:06:46.133Z,48.60
2018-07-16T15:09:17.084Z,47.60
2018-07-16T15:11:48.557Z,46.20
2018-07-16T15:14:19.682Z,46.40
2018-07-16T15:16:50.266Z,47.70
2018-07-16T15:19:21.021Z,48.70
2018-07-16T15:21:51.767Z,49.90
2018-07-16T15:24:22.549Z,51.00
2018-07-16T15:26:53.286Z,50.70
2018-07-16T15:29:24.311Z,50.70
2018-07-16T15:31:55.260Z,50.10
2018-07-16T15:34:26.253Z,50.70
2018-07-16T15:36:57.199Z,50.40
2018-07-16T15:39:28.108Z,50.60
2018-07-16T15:44:28.794Z,50.80
2018-07-16T15:47:01.499Z,51.00
2018-07-16T15:49:32.531Z,50.60
2018-07-16T15:52:04.051Z,50.00
2018-07-16T15:54:34.710Z,50.40
2018-07-16T15:57:05.363Z,49.40
2018-07-16T15:59:36.793Z,49.10
2018-07-16T16:02:08.367Z,48.30
2018-07-16T16:04:39.301Z,47.70
2018-07-16T16:07:10.411Z,47.40
2018-07-16T16:09:41.863Z,47.60
2018-07-16T16:12:13.001Z,47.60
2018-07-16T16:14:43.957Z,47.80
2018-07-16T16:17:14.774Z,47.70
2018-07-16T16:19:45.965Z,48.30
2018-07-16T16:22:20.775Z,48.50
2018-07-16T16:25:01.127Z,48.00
2018-07-16T16:27:32.154Z,47.50
2018-07-16T16:30:03.119Z,48.40
2018-07-16T16:32:33.999Z,48.40
2018-07-16T16:35:22.026Z,48.20
2018-07-16T16:37:53.104Z,47.60
2018-07-16T16:40:27.923Z,47.30
2018-07-16T16:43:00.685Z,47.70
2018-07-16T16:45:31.427Z,47.90
2018-07-16T16:53:54.700Z,47.40
2018-07-16T16:56:27.457Z,46.10
2018-07-16T16:58:58.138Z,44.40
2018-07-16T17:01:40.512Z,43.00
2018-07-16T17:04:22.842Z,41.80
2018-07-16T17:07:03.267Z,41.40
2018-07-16T17:15:04.467Z,43.60
2018-07-16T17:17:46.729Z,44.30
2018-07-16T17:20:39.408Z,43.80
2018-07-16T17:23:10.092Z,42.60
2018-07-16T17:25:40.733Z,42.60
2018-07-16T17:28:11.487Z,42.80
2018-07-16T17:30:42.163Z,43.30
2018-07-16T17:33:12.946Z,44.50
2018-07-16T17:35:43.699Z,45.60
2018-07-16T17:38:14.362Z,46.60
2018-07-16T17:40:45.042Z,50.40
2018-07-16T17:43:15.655Z,54.30
2018-07-16T17:45:51.828Z,55.10
2018-07-16T17:48:22.459Z,56.40
2018-07-16T17:50:53.094Z,57.20
2018-07-16T17:53:23.719Z,57.50
2018-07-16T17:55:54.452Z,58.10
2018-07-16T17:58:25.209Z,58.40
2018-07-16T18:00:55.865Z,58.50
2018-07-16T18:03:26.598Z,59.20
2018-07-16T18:05:57.247Z,58.50
2018-07-16T18:08:27.930Z,57.90
2018-07-16T18:10:58.565Z,57.00
2018-07-16T18:13:29.313Z,54.80
2018-07-16T18:16:00.236Z,52.90
2018-07-16T18:18:30.882Z,50.10
2018-07-16T18:21:01.612Z,47.40
2018-07-16T18:23:32.272Z,44.80
2018-07-16T18:26:02.915Z,43.30
2018-07-16T18:28:45.139Z,42.20
2018-07-16T18:31:15.912Z,40.90
2018-07-16T18:33:46.578Z,39.50
2018-07-16T18:36:17.275Z,39.10
2018-07-16T18:38:47.992Z,38.90
2018-07-16T18:43:48.640Z,39.60
2018-07-16T18:46:19.281Z,41.20
2018-07-16T18:48:50.107Z,43.10
2018-07-16T18:51:22.190Z,45.10
2018-07-16T18:53:52.854Z,47.30
2018-07-16T18:56:23.598Z,49.40
2018-07-16T18:58:54.388Z,51.20
2018-07-16T19:01:25.413Z,52.70
2018-07-16T19:03:56.151Z,54.10
2018-07-16T19:06:46.012Z,55.40
2018-07-16T19:09:16.707Z,56.50
2018-07-16T19:11:47.425Z,57.50
2018-07-16T19:14:18.097Z,58.60
2018-07-16T19:16:48.672Z,59.80
2018-07-16T19:19:19.339Z,60.80
2018-07-16T19:21:50.058Z,62.00
2018-07-16T19:24:20.704Z,62.90
2018-07-16T19:27:07.843Z,64.20
2018-07-16T19:29:38.460Z,65.50
2018-07-16T19:32:09.245Z,66.60
2018-07-16T19:34:40.093Z,67.30
2018-07-16T19:37:22.473Z,68.40
2018-07-16T19:39:53.171Z,69.20
2018-07-16T19:42:24.103Z,73.50
2018-07-16T19:44:54.931Z,75.00
2018-07-16T19:47:25.635Z,76.40
2018-07-16T19:49:56.365Z,78.60
2018-07-16T19:52:41.181Z,78.60
2018-07-16T19:55:11.951Z,78.80
2018-07-16T19:57:42.883Z,79.70
2018-07-16T20:00:13.612Z,81.40
2018-07-16T20:02:44.561Z,82.20
2018-07-16T20:05:15.408Z,84.40
2018-07-16T20:07:46.355Z,86.00
2018-07-16T20:10:17.286Z,87.40
2018-07-16T20:12:48.278Z,89.10
2018-07-16T20:15:28.905Z,90.40
2018-07-16T20:18:00.146Z,91.40
2018-07-16T20:20:31.159Z,92.60
2018-07-16T20:23:02.543Z,94.00
2018-07-16T20:25:33.230Z,95.40
2018-07-16T20:28:03.936Z,97.00
2018-07-16T20:30:34.896Z,98.40
2018-07-16T20:33:06.144Z,99.90
2018-07-16T20:35:37.228Z,99.90
2018-07-16T20:38:08.495Z,99.90
2018-07-16T20:40:39.628Z,99.90
2018-07-16T20:43:10.967Z,99.90
2018-07-16T20:45:52.144Z,99.90
2018-07-16T20:48:28.155Z,99.90
2018-07-16T20:50:59.408Z,99.90
2018-07-16T20:53:30.288Z,99.90
2018-07-16T20:56:02.115Z,99.90
2018-07-16T20:58:33.467Z,99.90
2018-07-16T21:01:04.643Z,99.90
2018-07-16T21:03:39.270Z,99.90
2018-07-16T21:06:10.229Z,99.90
2018-07-16T21:08:42.224Z,99.90
2018-07-16T21:11:29.923Z,99.90
2018-07-16T21:14:01.103Z,99.90
2018-07-16T21:16:45.336Z,99.90
2018-07-16T21:19:15.922Z,99.90
2018-07-16T21:21:46.913Z,99.90
2018-07-16T21:24:17.618Z,99.90
2018-07-16T21:26:54.615Z,99.90
2018-07-16T21:29:35.135Z,99.90
2018-07-16T21:32:11.920Z,99.90
2018-07-16T21:34:42.701Z,99.90
2018-07-16T21:37:13.693Z,99.90
2018-07-16T21:39:44.473Z,99.90
2018-07-16T21:42:15.366Z,99.90
2018-07-16T21:44:46.440Z,99.90
2018-07-16T21:47:17.476Z,99.90
2018-07-16T21:49:48.527Z,99.90
2018-07-16T21:52:19.480Z,99.90
2018-07-16T21:54:50.549Z,99.90
2018-07-16T21:57:21.452Z,99.90
2018-07-16T21:59:52.441Z,99.90
2018-07-16T22:02:23.343Z,99.90
2018-07-16T22:04:54.276Z,99.90
2018-07-16T22:07:25.159Z,99.90
2018-07-16T22:09:56.019Z,99.90
2018-07-16T22:12:27.057Z,99.90
2018-07-16T22:14:57.867Z,99.90
2018-07-16T22:17:29.015Z,99.90
2018-07-16T22:19:59.907Z,99.90
2018-07-16T22:22:30.746Z,99.90
2018-07-16T22:25:01.604Z,99.90
2018-07-16T22:27:32.777Z,99.90
2018-07-16T22:30:03.725Z,99.90
2018-07-16T22:32:34.483Z,99.90
2018-07-16T22:35:05.593Z,99.90
2018-07-16T22:37:36.744Z,99.90
2018-07-16T22:40:13.822Z,99.90
2018-07-16T22:42:44.701Z,99.90
2018-07-16T22:45:15.594Z,99.90
2018-07-16T22:47:46.627Z,99.90
2018-07-16T22:50:17.622Z,99.90
2018-07-16T22:52:48.426Z,99.90
2018-07-16T22:55:19.454Z,99.90
2018-07-16T22:57:50.324Z,99.90
2018-07-16T23:00:21.481Z,99.90
2018-07-16T23:02:52.433Z,99.90
2018-07-16T23:05:23.567Z,99.90
2018-07-16T23:07:54.457Z,99.90
2018-07-16T23:10:25.556Z,99.90
2018-07-16T23:12:56.522Z,99.90
2018-07-16T23:15:27.804Z,99.90
2018-07-16T23:17:58.749Z,99.90
2018-07-16T23:20:29.660Z,99.90
2018-07-16T23:23:00.696Z,99.90
2018-07-16T23:25:31.483Z,99.90
2018-07-16T23:28:02.412Z,99.90
2018-07-16T23:30:33.399Z,99.90
2018-07-16T23:33:10.382Z,99.90
2018-07-16T23:35:42.196Z,99.90
2018-07-16T23:38:13.047Z,99.90
2018-07-16T23:40:43.995Z,99.90
2018-07-16T23:43:15.335Z,99.90
2018-07-16T23:45:46.406Z,99.90
2018-07-16T23:48:18.082Z,99.90
2018-07-16T23:50:49.063Z,99.90
2018-07-16T23:53:20.015Z,99.90
2018-07-16T23:55:51.117Z,99.90
2018-07-16T23:58:22.081Z,99.90
